sensor_id;sensor_type;location;lat;lon;timestamp;temperature;humidity
75357;HTU21D;63946;51.986;5.930;2023-07-08T06:04:14;24.73;41.29
75357;HTU21D;63946;51.986;5.930;2023-07-08T06:06:47;24.90;41.39
75357;HTU21D;63946;51.986;5.930;2023-07-08T06:09:18;25.06;40.94
75357;HTU21D;63946;51.986;5.930;2023-07-08T06:11:52;25.12;40.52
75357;HTU21D;63946;51.986;5.930;2023-07-08T06:14:28;25.17;40.49
75357;HTU21D;63946;51.986;5.930;2023-07-08T06:17:04;25.14;40.22
75357;HTU21D;63946;51.986;5.930;2023-07-08T06:19:38;24.99;40.14
75357;HTU21D;63946;51.986;5.930;2023-07-08T06:22:16;24.83;40.91
75357;HTU21D;63946;51.986;5.930;2023-07-08T06:24:45;24.90;40.85
75357;HTU21D;63946;51.986;5.930;2023-07-08T06:27:21;24.79;40.75
75357;HTU21D;63946;51.986;5.930;2023-07-08T06:29:57;24.75;40.78
75357;HTU21D;63946;51.986;5.930;2023-07-08T06:32:48;24.76;40.91
75357;HTU21D;63946;51.986;5.930;2023-07-08T06:35:19;24.51;41.34
75357;HTU21D;63946;51.986;5.930;2023-07-08T06:37:58;24.47;41.70
75357;HTU21D;63946;51.986;5.930;2023-07-08T06:40:37;24.70;41.48
75357;HTU21D;63946;51.986;5.930;2023-07-08T06:43:10;24.73;41.17
75357;HTU21D;63946;51.986;5.930;2023-07-08T06:45:54;24.62;41.58
75357;HTU21D;63946;51.986;5.930;2023-07-08T06:48:26;24.73;41.62
75357;HTU21D;63946;51.986;5.930;2023-07-08T06:50:56;24.74;41.31
75357;HTU21D;63946;51.986;5.930;2023-07-08T06:53:25;24.71;41.33
75357;HTU21D;63946;51.986;5.930;2023-07-08T06:55:57;24.71;41.47
75357;HTU21D;63946;51.986;5.930;2023-07-08T06:58:26;24.70;41.71
75357;HTU21D;63946;51.986;5.930;2023-07-08T07:01:04;24.77;41.69
75357;HTU21D;63946;51.986;5.930;2023-07-08T07:03:43;24.78;41.52
75357;HTU21D;63946;51.986;5.930;2023-07-08T07:06:20;24.76;41.89
75357;HTU21D;63946;51.986;5.930;2023-07-08T07:08:52;24.84;41.85
75357;HTU21D;63946;51.986;5.930;2023-07-08T07:11:23;24.91;41.69
75357;HTU21D;63946;51.986;5.930;2023-07-08T07:13:53;24.88;41.81
75357;HTU21D;63946;51.986;5.930;2023-07-08T07:16:24;25.00;41.49
75357;HTU21D;63946;51.986;5.930;2023-07-08T07:18:53;25.03;41.35
75357;HTU21D;63946;51.986;5.930;2023-07-08T07:21:25;25.06;41.40
75357;HTU21D;63946;51.986;5.930;2023-07-08T07:23:53;25.09;41.61
75357;HTU21D;63946;51.986;5.930;2023-07-08T07:26:25;25.36;41.51
75357;HTU21D;63946;51.986;5.930;2023-07-08T07:28:58;25.60;41.29
75357;HTU21D;63946;51.986;5.930;2023-07-08T07:31:28;25.87;40.79
75357;HTU21D;63946;51.986;5.930;2023-07-08T07:34:00;25.97;40.56
75357;HTU21D;63946;51.986;5.930;2023-07-08T07:36:34;26.13;40.49
75357;HTU21D;63946;51.986;5.930;2023-07-08T07:39:04;26.27;40.38
75357;HTU21D;63946;51.986;5.930;2023-07-08T07:41:36;26.27;40.20
75357;HTU21D;63946;51.986;5.930;2023-07-08T07:44:08;26.22;40.20
75357;HTU21D;63946;51.986;5.930;2023-07-08T07:46:37;26.31;40.46
75357;HTU21D;63946;51.986;5.930;2023-07-08T07:49:08;26.61;40.39
75357;HTU21D;63946;51.986;5.930;2023-07-08T07:51:37;26.70;39.72
75357;HTU21D;63946;51.986;5.930;2023-07-08T07:54:09;26.69;39.65
75357;HTU21D;63946;51.986;5.930;2023-07-08T07:56:38;26.76;39.59
75357;HTU21D;63946;51.986;5.930;2023-07-08T07:59:10;26.77;39.50
75357;HTU21D;63946;51.986;5.930;2023-07-08T08:01:39;26.84;39.39
75357;HTU21D;63946;51.986;5.930;2023-07-08T08:04:10;27.01;39.09
75357;HTU21D;63946;51.986;5.930;2023-07-08T08:06:39;27.06;38.94
75357;HTU21D;63946;51.986;5.930;2023-07-08T08:09:08;27.04;39.24
75357;HTU21D;63946;51.986;5.930;2023-07-08T08:11:50;27.14;39.39
75357;HTU21D;63946;51.986;5.930;2023-07-08T08:14:33;27.42;39.09
75357;HTU21D;63946;51.986;5.930;2023-07-08T08:17:14;27.69;38.73
75357;HTU21D;63946;51.986;5.930;2023-07-08T08:19:46;27.73;38.31
75357;HTU21D;63946;51.986;5.930;2023-07-08T08:22:15;27.63;38.49
75357;HTU21D;63946;51.986;5.930;2023-07-08T08:24:44;27.68;38.67
75357;HTU21D;63946;51.986;5.930;2023-07-08T08:27:13;27.78;38.40
75357;HTU21D;63946;51.986;5.930;2023-07-08T08:29:44;28.00;38.53
75357;HTU21D;63946;51.986;5.930;2023-07-08T08:32:13;28.20;38.43
75357;HTU21D;63946;51.986;5.930;2023-07-08T08:34:45;28.42;37.82
75357;HTU21D;63946;51.986;5.930;2023-07-08T08:37:19;28.45;37.09
75357;HTU21D;63946;51.986;5.930;2023-07-08T08:39:58;28.35;37.61
75357;HTU21D;63946;51.986;5.930;2023-07-08T08:42:40;28.49;37.91
75357;HTU21D;63946;51.986;5.930;2023-07-08T08:45:17;28.72;37.67
75357;HTU21D;63946;51.986;5.930;2023-07-08T08:48:10;28.97;37.62
75357;HTU21D;63946;51.986;5.930;2023-07-08T08:50:51;29.05;36.76
75357;HTU21D;63946;51.986;5.930;2023-07-08T08:53:25;29.07;37.10
75357;HTU21D;63946;51.986;5.930;2023-07-08T08:56:32;29.17;36.72
75357;HTU21D;63946;51.986;5.930;2023-07-08T09:01:55;29.27;36.69
75357;HTU21D;63946;51.986;5.930;2023-07-08T09:04:31;29.20;36.54
75357;HTU21D;63946;51.986;5.930;2023-07-08T09:07:16;29.17;36.79
75357;HTU21D;63946;51.986;5.930;2023-07-08T09:10:04;29.36;36.87
75357;HTU21D;63946;51.986;5.930;2023-07-08T09:12:40;29.50;36.26
75357;HTU21D;63946;51.986;5.930;2023-07-08T09:15:15;29.43;36.24
75357;HTU21D;63946;51.986;5.930;2023-07-08T09:17:49;29.50;36.70
75357;HTU21D;63946;51.986;5.930;2023-07-08T09:20:28;29.57;36.42
75357;HTU21D;63946;51.986;5.930;2023-07-08T09:23:19;29.68;35.87
75357;HTU21D;63946;51.986;5.930;2023-07-08T09:26:16;29.82;36.04
75357;HTU21D;63946;51.986;5.930;2023-07-08T09:28:45;29.97;35.84
75357;HTU21D;63946;51.986;5.930;2023-07-08T09:31:28;30.10;35.81
75357;HTU21D;63946;51.986;5.930;2023-07-08T09:34:17;30.35;35.63
75357;HTU21D;63946;51.986;5.930;2023-07-08T09:36:53;30.54;34.94
75357;HTU21D;63946;51.986;5.930;2023-07-08T09:39:22;30.61;34.66
75357;HTU21D;63946;51.986;5.930;2023-07-08T09:41:56;30.66;34.79
75357;HTU21D;63946;51.986;5.930;2023-07-08T09:44:28;30.77;34.73
75357;HTU21D;63946;51.986;5.930;2023-07-08T09:47:01;30.92;34.44
75357;HTU21D;63946;51.986;5.930;2023-07-08T09:49:34;31.04;33.34
75357;HTU21D;63946;51.986;5.930;2023-07-08T09:52:12;31.09;33.01
75357;HTU21D;63946;51.986;5.930;2023-07-08T09:54:47;31.14;32.69
75357;HTU21D;63946;51.986;5.930;2023-07-08T09:57:39;31.24;32.54
75357;HTU21D;63946;51.986;5.930;2023-07-08T10:00:27;31.28;32.51
75357;HTU21D;63946;51.986;5.930;2023-07-08T10:03:17;31.31;32.43
75357;HTU21D;63946;51.986;5.930;2023-07-08T10:05:57;31.43;32.14
75357;HTU21D;63946;51.986;5.930;2023-07-08T10:08:40;31.40;32.02
75357;HTU21D;63946;51.986;5.930;2023-07-08T10:11:26;31.46;32.30
75357;HTU21D;63946;51.986;5.930;2023-07-08T10:16:46;31.56;31.74
75357;HTU21D;63946;51.986;5.930;2023-07-08T10:19:17;31.60;31.92
75357;HTU21D;63946;51.986;5.930;2023-07-08T10:30:11;32.07;31.32
75357;HTU21D;63946;51.986;5.930;2023-07-08T10:41:10;32.35;31.43
75357;HTU21D;63946;51.986;5.930;2023-07-08T10:43:55;32.37;30.88
75357;HTU21D;63946;51.986;5.930;2023-07-08T10:52:47;32.52;31.12
75357;HTU21D;63946;51.986;5.930;2023-07-08T10:55:44;32.63;30.60
75357;HTU21D;63946;51.986;5.930;2023-07-08T11:09:59;32.63;30.79
75357;HTU21D;63946;51.986;5.930;2023-07-08T11:12:47;32.69;30.37
75357;HTU21D;63946;51.986;5.930;2023-07-08T11:15:28;32.71;30.25
75357;HTU21D;63946;51.986;5.930;2023-07-08T11:18:10;32.85;30.18
75357;HTU21D;63946;51.986;5.930;2023-07-08T11:21:18;32.88;29.79
75357;HTU21D;63946;51.986;5.930;2023-07-08T11:26:54;32.81;29.55
75357;HTU21D;63946;51.986;5.930;2023-07-08T11:32:16;32.82;29.78
75357;HTU21D;63946;51.986;5.930;2023-07-08T11:35:04;32.83;29.48
75357;HTU21D;63946;51.986;5.930;2023-07-08T11:37:34;32.76;29.87
75357;HTU21D;63946;51.986;5.930;2023-07-08T11:40:17;32.90;29.71
75357;HTU21D;63946;51.986;5.930;2023-07-08T11:42:52;33.06;29.66
75357;HTU21D;63946;51.986;5.930;2023-07-08T11:48:38;33.19;29.30
75357;HTU21D;63946;51.986;5.930;2023-07-08T11:51:09;33.18;29.43
75357;HTU21D;63946;51.986;5.930;2023-07-08T11:53:51;33.36;29.05
75357;HTU21D;63946;51.986;5.930;2023-07-08T11:56:27;33.47;28.74
75357;HTU21D;63946;51.986;5.930;2023-07-08T11:59:18;33.50;28.62
75357;HTU21D;63946;51.986;5.930;2023-07-08T12:04:26;33.76;28.84
75357;HTU21D;63946;51.986;5.930;2023-07-08T12:10:16;33.72;28.38
75357;HTU21D;63946;51.986;5.930;2023-07-08T12:12:46;33.74;28.38
75357;HTU21D;63946;51.986;5.930;2023-07-08T12:15:22;33.82;28.14
75357;HTU21D;63946;51.986;5.930;2023-07-08T12:17:59;33.78;28.36
75357;HTU21D;63946;51.986;5.930;2023-07-08T12:20:34;33.80;27.90
75357;HTU21D;63946;51.986;5.930;2023-07-08T12:23:11;33.85;27.71
75357;HTU21D;63946;51.986;5.930;2023-07-08T12:25:41;33.91;27.96
75357;HTU21D;63946;51.986;5.930;2023-07-08T12:28:11;34.00;27.90
75357;HTU21D;63946;51.986;5.930;2023-07-08T12:30:44;34.15;27.97
75357;HTU21D;63946;51.986;5.930;2023-07-08T12:33:18;34.31;27.52
75357;HTU21D;63946;51.986;5.930;2023-07-08T12:35:51;34.31;27.15
75357;HTU21D;63946;51.986;5.930;2023-07-08T12:38:29;34.24;26.94
75357;HTU21D;63946;51.986;5.930;2023-07-08T12:41:31;34.23;27.87
75357;HTU21D;63946;51.986;5.930;2023-07-08T12:44:17;34.33;27.75
75357;HTU21D;63946;51.986;5.930;2023-07-08T12:46:53;34.41;27.03
75357;HTU21D;63946;51.986;5.930;2023-07-08T12:49:22;34.45;26.78
75357;HTU21D;63946;51.986;5.930;2023-07-08T12:51:55;34.50;26.71
75357;HTU21D;63946;51.986;5.930;2023-07-08T12:54:28;34.50;26.91
75357;HTU21D;63946;51.986;5.930;2023-07-08T12:57:09;34.56;26.43
75357;HTU21D;63946;51.986;5.930;2023-07-08T12:59:40;34.42;26.07
75357;HTU21D;63946;51.986;5.930;2023-07-08T13:02:19;34.47;26.47
75357;HTU21D;63946;51.986;5.930;2023-07-08T13:04:56;34.59;26.21
75357;HTU21D;63946;51.986;5.930;2023-07-08T13:07:37;34.57;25.64
75357;HTU21D;63946;51.986;5.930;2023-07-08T13:10:26;34.52;25.14
75357;HTU21D;63946;51.986;5.930;2023-07-08T13:13:00;34.51;25.62
75357;HTU21D;63946;51.986;5.930;2023-07-08T13:15:40;34.59;25.62
75357;HTU21D;63946;51.986;5.930;2023-07-08T13:18:39;34.61;25.78
75357;HTU21D;63946;51.986;5.930;2023-07-08T13:21:12;34.68;25.57
75357;HTU21D;63946;51.986;5.930;2023-07-08T13:23:45;34.65;25.83
75357;HTU21D;63946;51.986;5.930;2023-07-08T13:26:21;34.77;26.10
75357;HTU21D;63946;51.986;5.930;2023-07-08T13:28:59;34.83;25.23
75357;HTU21D;63946;51.986;5.930;2023-07-08T13:31:37;34.85;26.09
75357;HTU21D;63946;51.986;5.930;2023-07-08T13:34:18;34.92;25.41
75357;HTU21D;63946;51.986;5.930;2023-07-08T13:36:50;34.96;25.01
75357;HTU21D;63946;51.986;5.930;2023-07-08T13:39:30;34.89;25.37
75357;HTU21D;63946;51.986;5.930;2023-07-08T13:42:03;34.95;25.13
75357;HTU21D;63946;51.986;5.930;2023-07-08T13:44:49;34.93;24.85
75357;HTU21D;63946;51.986;5.930;2023-07-08T13:47:29;35.03;24.88
75357;HTU21D;63946;51.986;5.930;2023-07-08T13:50:15;35.07;25.02
75357;HTU21D;63946;51.986;5.930;2023-07-08T13:52:46;35.10;24.75
75357;HTU21D;63946;51.986;5.930;2023-07-08T13:55:18;35.03;24.56
75357;HTU21D;63946;51.986;5.930;2023-07-08T13:57:59;34.97;24.88
75357;HTU21D;63946;51.986;5.930;2023-07-08T14:00:36;35.04;24.62
75357;HTU21D;63946;51.986;5.930;2023-07-08T14:03:11;34.93;23.75
75357;HTU21D;63946;51.986;5.930;2023-07-08T14:05:44;34.77;23.75
75357;HTU21D;63946;51.986;5.930;2023-07-08T14:08:15;34.65;24.25
75357;HTU21D;63946;51.986;5.930;2023-07-08T14:10:44;34.67;23.98
75357;HTU21D;63946;51.986;5.930;2023-07-08T14:13:13;34.54;24.46
75357;HTU21D;63946;51.986;5.930;2023-07-08T14:15:43;34.60;24.58
75357;HTU21D;63946;51.986;5.930;2023-07-08T14:18:21;34.68;26.07
75357;HTU21D;63946;51.986;5.930;2023-07-08T14:20:50;34.84;25.44
75357;HTU21D;63946;51.986;5.930;2023-07-08T14:23:22;34.89;24.75
75357;HTU21D;63946;51.986;5.930;2023-07-08T14:25:56;34.83;24.92
75357;HTU21D;63946;51.986;5.930;2023-07-08T14:28:26;34.79;24.52
75357;HTU21D;63946;51.986;5.930;2023-07-08T14:30:55;34.79;24.36
75357;HTU21D;63946;51.986;5.930;2023-07-08T14:33:24;34.71;24.76
75357;HTU21D;63946;51.986;5.930;2023-07-08T14:35:53;34.79;25.01
75357;HTU21D;63946;51.986;5.930;2023-07-08T14:38:25;34.85;24.59
75357;HTU21D;63946;51.986;5.930;2023-07-08T14:40:54;34.86;24.69
75357;HTU21D;63946;51.986;5.930;2023-07-08T14:43:34;34.88;24.00
75357;HTU21D;63946;51.986;5.930;2023-07-08T14:46:09;34.79;24.75
75357;HTU21D;63946;51.986;5.930;2023-07-08T14:48:38;34.83;24.08
75357;HTU21D;63946;51.986;5.930;2023-07-08T14:51:17;34.76;24.27
75357;HTU21D;63946;51.986;5.930;2023-07-08T14:53:48;34.78;24.20
75357;HTU21D;63946;51.986;5.930;2023-07-08T14:56:20;34.80;23.96
75357;HTU21D;63946;51.986;5.930;2023-07-08T14:58:50;34.88;23.91
75357;HTU21D;63946;51.986;5.930;2023-07-08T15:01:21;34.92;24.02
75357;HTU21D;63946;51.986;5.930;2023-07-08T15:03:56;34.85;23.55
75357;HTU21D;63946;51.986;5.930;2023-07-08T15:06:34;34.81;23.44
75357;HTU21D;63946;51.986;5.930;2023-07-08T15:09:03;34.80;23.75
75357;HTU21D;63946;51.986;5.930;2023-07-08T15:11:33;34.80;23.87
75357;HTU21D;63946;51.986;5.930;2023-07-08T15:14:09;34.71;23.27
75357;HTU21D;63946;51.986;5.930;2023-07-08T15:16:43;34.53;22.42
75357;HTU21D;63946;51.986;5.930;2023-07-08T15:19:12;34.39;22.05
75357;HTU21D;63946;51.986;5.930;2023-07-08T15:21:42;34.30;22.43
75357;HTU21D;63946;51.986;5.930;2023-07-08T15:24:13;34.31;22.35
75357;HTU21D;63946;51.986;5.930;2023-07-08T15:26:46;34.35;22.82
75357;HTU21D;63946;51.986;5.930;2023-07-08T15:29:21;34.37;22.57
75357;HTU21D;63946;51.986;5.930;2023-07-08T15:31:50;34.34;22.69
75357;HTU21D;63946;51.986;5.930;2023-07-08T15:34:21;34.32;22.44
75357;HTU21D;63946;51.986;5.930;2023-07-08T15:36:50;34.35;22.98
75357;HTU21D;63946;51.986;5.930;2023-07-08T15:39:19;34.36;23.12
75357;HTU21D;63946;51.986;5.930;2023-07-08T15:41:49;34.35;23.29
75357;HTU21D;63946;51.986;5.930;2023-07-08T15:44:19;34.44;23.23
75357;HTU21D;63946;51.986;5.930;2023-07-08T15:46:50;34.50;22.63
75357;HTU21D;63946;51.986;5.930;2023-07-08T15:49:22;34.49;22.06
75357;HTU21D;63946;51.986;5.930;2023-07-08T15:51:55;34.39;22.06
75357;HTU21D;63946;51.986;5.930;2023-07-08T15:54:26;34.30;23.00
75357;HTU21D;63946;51.986;5.930;2023-07-08T15:56:58;34.22;22.85
75357;HTU21D;63946;51.986;5.930;2023-07-08T15:59:30;34.17;22.59
75357;HTU21D;63946;51.986;5.930;2023-07-08T16:02:05;34.11;23.46
75357;HTU21D;63946;51.986;5.930;2023-07-08T16:04:40;34.04;23.13
75357;HTU21D;63946;51.986;5.930;2023-07-08T16:07:09;33.99;22.72
75357;HTU21D;63946;51.986;5.930;2023-07-08T16:09:38;33.89;22.37
75357;HTU21D;63946;51.986;5.930;2023-07-08T16:12:08;33.80;22.76
75357;HTU21D;63946;51.986;5.930;2023-07-08T16:14:40;33.73;22.78
75357;HTU21D;63946;51.986;5.930;2023-07-08T16:17:12;33.70;22.47
75357;HTU21D;63946;51.986;5.930;2023-07-08T16:19:43;33.62;22.97
75357;HTU21D;63946;51.986;5.930;2023-07-08T16:22:14;33.60;23.62
75357;HTU21D;63946;51.986;5.930;2023-07-08T16:24:43;33.51;23.54
75357;HTU21D;63946;51.986;5.930;2023-07-08T16:27:12;33.47;23.70
75357;HTU21D;63946;51.986;5.930;2023-07-08T16:29:41;33.46;23.75
75357;HTU21D;63946;51.986;5.930;2023-07-08T16:32:14;33.50;23.14
75357;HTU21D;63946;51.986;5.930;2023-07-08T16:34:48;33.53;22.73
75357;HTU21D;63946;51.986;5.930;2023-07-08T16:37:17;33.53;23.01
75357;HTU21D;63946;51.986;5.930;2023-07-08T16:39:46;33.49;24.27
75357;HTU21D;63946;51.986;5.930;2023-07-08T16:42:16;33.42;24.36
75357;HTU21D;63946;51.986;5.930;2023-07-08T16:44:48;33.37;24.36
75357;HTU21D;63946;51.986;5.930;2023-07-08T16:47:17;33.31;24.03
75357;HTU21D;63946;51.986;5.930;2023-07-08T16:49:46;33.25;23.90
75357;HTU21D;63946;51.986;5.930;2023-07-08T16:52:16;33.19;23.98
75357;HTU21D;63946;51.986;5.930;2023-07-08T16:54:46;33.15;24.15
75357;HTU21D;63946;51.986;5.930;2023-07-08T16:57:15;33.13;24.37
75357;HTU21D;63946;51.986;5.930;2023-07-08T16:59:44;33.05;24.03
75357;HTU21D;63946;51.986;5.930;2023-07-08T17:02:16;33.01;24.20
75357;HTU21D;63946;51.986;5.930;2023-07-08T17:04:47;32.98;24.51
75357;HTU21D;63946;51.986;5.930;2023-07-08T17:07:21;32.89;25.23
75357;HTU21D;63946;51.986;5.930;2023-07-08T17:09:53;32.85;25.83
75357;HTU21D;63946;51.986;5.930;2023-07-08T17:12:22;32.82;26.55
75357;HTU21D;63946;51.986;5.930;2023-07-08T17:14:53;32.75;27.55
75357;HTU21D;63946;51.986;5.930;2023-07-08T17:17:22;32.69;28.06
75357;HTU21D;63946;51.986;5.930;2023-07-08T17:19:55;32.62;28.73
75357;HTU21D;63946;51.986;5.930;2023-07-08T17:22:24;32.55;29.16
75357;HTU21D;63946;51.986;5.930;2023-07-08T17:24:53;32.47;29.57
75357;HTU21D;63946;51.986;5.930;2023-07-08T17:27:22;32.43;30.08
75357;HTU21D;63946;51.986;5.930;2023-07-08T17:29:51;32.38;30.41
75357;HTU21D;63946;51.986;5.930;2023-07-08T17:32:20;32.32;30.83
75357;HTU21D;63946;51.986;5.930;2023-07-08T17:34:51;32.28;31.28
75357;HTU21D;63946;51.986;5.930;2023-07-08T17:37:21;32.22;31.18
75357;HTU21D;63946;51.986;5.930;2023-07-08T17:39:55;32.13;31.70
75357;HTU21D;63946;51.986;5.930;2023-07-08T17:42:24;32.09;32.21
75357;HTU21D;63946;51.986;5.930;2023-07-08T17:44:56;32.03;32.35
75357;HTU21D;63946;51.986;5.930;2023-07-08T17:47:24;31.99;32.36
75357;HTU21D;63946;51.986;5.930;2023-07-08T17:49:53;31.97;32.44
75357;HTU21D;63946;51.986;5.930;2023-07-08T17:52:22;31.92;32.48
75357;HTU21D;63946;51.986;5.930;2023-07-08T17:54:55;31.87;32.52
75357;HTU21D;63946;51.986;5.930;2023-07-08T17:57:24;31.82;32.66
75357;HTU21D;63946;51.986;5.930;2023-07-08T17:59:54;31.78;32.86
75357;HTU21D;63946;51.986;5.930;2023-07-08T18:02:23;31.72;33.22
75357;HTU21D;63946;51.986;5.930;2023-07-08T18:04:53;31.66;33.60
75357;HTU21D;63946;51.986;5.930;2023-07-08T18:07:22;31.59;33.34
75357;HTU21D;63946;51.986;5.930;2023-07-08T18:09:55;31.52;33.81
75357;HTU21D;63946;51.986;5.930;2023-07-08T18:12:24;31.43;33.92
75357;HTU21D;63946;51.986;5.930;2023-07-08T18:14:55;31.39;34.25
75357;HTU21D;63946;51.986;5.930;2023-07-08T18:17:24;31.33;34.54
75357;HTU21D;63946;51.986;5.930;2023-07-08T18:19:56;31.26;34.54
75357;HTU21D;63946;51.986;5.930;2023-07-08T18:22:29;31.18;34.70
75357;HTU21D;63946;51.986;5.930;2023-07-08T18:24:57;31.10;35.24
75357;HTU21D;63946;51.986;5.930;2023-07-08T18:27:26;31.02;35.64
75357;HTU21D;63946;51.986;5.930;2023-07-08T18:29:55;30.94;36.06
75357;HTU21D;63946;51.986;5.930;2023-07-08T18:32:26;30.84;36.47
75357;HTU21D;63946;51.986;5.930;2023-07-08T18:34:58;30.72;36.92
75357;HTU21D;63946;51.986;5.930;2023-07-08T18:37:29;30.64;37.22
75357;HTU21D;63946;51.986;5.930;2023-07-08T18:39:58;30.53;37.59
75357;HTU21D;63946;51.986;5.930;2023-07-08T18:42:27;30.45;37.71
75357;HTU21D;63946;51.986;5.930;2023-07-08T18:44:58;30.38;38.04
75357;HTU21D;63946;51.986;5.930;2023-07-08T18:47:27;30.32;38.27
75357;HTU21D;63946;51.986;5.930;2023-07-08T18:49:56;30.24;38.27
75357;HTU21D;63946;51.986;5.930;2023-07-08T18:52:25;30.21;38.22
75357;HTU21D;63946;51.986;5.930;2023-07-08T18:54:54;30.18;38.01
75357;HTU21D;63946;51.986;5.930;2023-07-08T18:57:29;30.13;38.30
75357;HTU21D;63946;51.986;5.930;2023-07-08T19:00:01;30.07;38.82
75357;HTU21D;63946;51.986;5.930;2023-07-08T19:05:18;29.93;39.92
75357;HTU21D;63946;51.986;5.930;2023-07-08T19:07:48;29.82;40.37
75357;HTU21D;63946;51.986;5.930;2023-07-08T19:10:26;29.77;40.40
75357;HTU21D;63946;51.986;5.930;2023-07-08T19:13:01;29.72;40.68
75357;HTU21D;63946;51.986;5.930;2023-07-08T19:15:37;29.67;40.93
75357;HTU21D;63946;51.986;5.930;2023-07-08T19:18:08;29.61;41.06
75357;HTU21D;63946;51.986;5.930;2023-07-08T19:20:42;29.54;41.39
75357;HTU21D;63946;51.986;5.930;2023-07-08T19:23:17;29.45;41.80
75357;HTU21D;63946;51.986;5.930;2023-07-08T19:25:46;29.41;41.97
75357;HTU21D;63946;51.986;5.930;2023-07-08T19:28:15;29.31;42.42
75357;HTU21D;63946;51.986;5.930;2023-07-08T19:30:50;29.17;42.95
75357;HTU21D;63946;51.986;5.930;2023-07-08T19:33:21;29.09;43.06
75357;HTU21D;63946;51.986;5.930;2023-07-08T19:35:53;29.05;43.51
75357;HTU21D;63946;51.986;5.930;2023-07-08T19:38:26;28.95;43.84
75357;HTU21D;63946;51.986;5.930;2023-07-08T19:40:55;28.90;44.25
75357;HTU21D;63946;51.986;5.930;2023-07-08T19:43:26;28.84;44.32
75357;HTU21D;63946;51.986;5.930;2023-07-08T19:45:55;28.79;44.48
75357;HTU21D;63946;51.986;5.930;2023-07-08T19:48:23;28.75;44.66
75357;HTU21D;63946;51.986;5.930;2023-07-08T19:50:54;28.72;44.99
75357;HTU21D;63946;51.986;5.930;2023-07-08T19:53:25;28.64;45.44
75357;HTU21D;63946;51.986;5.930;2023-07-08T19:55:54;28.57;45.47
75357;HTU21D;63946;51.986;5.930;2023-07-08T19:58:23;28.49;45.12
75357;HTU21D;63946;51.986;5.930;2023-07-08T20:00:52;28.42;45.21
75357;HTU21D;63946;51.986;5.930;2023-07-08T20:03:22;28.38;45.21
75357;HTU21D;63946;51.986;5.930;2023-07-08T20:05:51;28.30;45.47
75357;HTU21D;63946;51.986;5.930;2023-07-08T20:08:26;28.20;46.15
75357;HTU21D;63946;51.986;5.930;2023-07-08T20:10:56;28.14;45.99
75357;HTU21D;63946;51.986;5.930;2023-07-08T20:13:28;28.10;46.24
75357;HTU21D;63946;51.986;5.930;2023-07-08T20:15:58;28.05;46.69
75357;HTU21D;63946;51.986;5.930;2023-07-08T20:18:31;27.98;47.23
75357;HTU21D;63946;51.986;5.930;2023-07-08T20:21:06;27.91;47.55
75357;HTU21D;63946;51.986;5.930;2023-07-08T20:23:35;27.76;47.70
75357;HTU21D;63946;51.986;5.930;2023-07-08T20:26:31;27.66;47.37
75357;HTU21D;63946;51.986;5.930;2023-07-08T20:29:01;27.61;47.49
75357;HTU21D;63946;51.986;5.930;2023-07-08T20:31:32;27.56;48.05
75357;HTU21D;63946;51.986;5.930;2023-07-08T20:34:01;27.49;48.24
75357;HTU21D;63946;51.986;5.930;2023-07-08T20:36:30;27.44;48.48
75357;HTU21D;63946;51.986;5.930;2023-07-08T20:39:03;27.39;48.66
75357;HTU21D;63946;51.986;5.930;2023-07-08T20:41:45;27.30;49.00
75357;HTU21D;63946;51.986;5.930;2023-07-08T20:44:15;27.24;49.16
75357;HTU21D;63946;51.986;5.930;2023-07-08T20:46:47;27.11;49.43
75357;HTU21D;63946;51.986;5.930;2023-07-08T20:49:16;27.05;49.99
75357;HTU21D;63946;51.986;5.930;2023-07-08T20:51:58;26.98;50.40
75357;HTU21D;63946;51.986;5.930;2023-07-08T20:54:30;26.94;50.56
75357;HTU21D;63946;51.986;5.930;2023-07-08T20:57:01;26.87;50.60
75357;HTU21D;63946;51.986;5.930;2023-07-08T20:59:31;26.84;50.74
75357;HTU21D;63946;51.986;5.930;2023-07-08T21:02:28;26.78;50.53
75357;HTU21D;63946;51.986;5.930;2023-07-08T21:04:57;26.73;50.47
75357;HTU21D;63946;51.986;5.930;2023-07-08T21:07:27;26.68;50.69
75357;HTU21D;63946;51.986;5.930;2023-07-08T21:09:56;26.64;50.83
75357;HTU21D;63946;51.986;5.930;2023-07-08T21:12:25;26.56;51.11
75357;HTU21D;63946;51.986;5.930;2023-07-08T21:15:00;26.51;51.42
75357;HTU21D;63946;51.986;5.930;2023-07-08T21:17:30;26.39;51.48
75357;HTU21D;63946;51.986;5.930;2023-07-08T21:19:59;26.35;51.64
75357;HTU21D;63946;51.986;5.930;2023-07-08T21:22:36;26.32;52.00
75357;HTU21D;63946;51.986;5.930;2023-07-08T21:25:09;26.24;51.94
75357;HTU21D;63946;51.986;5.930;2023-07-08T21:27:39;26.21;52.11
75357;HTU21D;63946;51.986;5.930;2023-07-08T21:30:19;26.17;52.13
75357;HTU21D;63946;51.986;5.930;2023-07-08T21:32:50;26.09;52.37
75357;HTU21D;63946;51.986;5.930;2023-07-08T21:35:27;26.05;52.55
75357;HTU21D;63946;51.986;5.930;2023-07-08T21:38:02;26.02;52.71
75357;HTU21D;63946;51.986;5.930;2023-07-08T21:40:38;25.96;53.00
75357;HTU21D;63946;51.986;5.930;2023-07-08T21:43:13;25.90;53.18
75357;HTU21D;63946;51.986;5.930;2023-07-08T21:45:42;25.82;53.17
75357;HTU21D;63946;51.986;5.930;2023-07-08T21:48:15;25.79;53.23
75357;HTU21D;63946;51.986;5.930;2023-07-08T21:50:47;25.78;53.63
75357;HTU21D;63946;51.986;5.930;2023-07-08T21:53:23;25.76;54.04
75357;HTU21D;63946;51.986;5.930;2023-07-08T21:55:53;25.68;54.01
75357;HTU21D;63946;51.986;5.930;2023-07-08T21:58:23;25.60;54.00
75357;HTU21D;63946;51.986;5.930;2023-07-08T22:00:55;25.54;53.81
75357;HTU21D;63946;51.986;5.930;2023-07-08T22:03:27;25.53;53.76
75357;HTU21D;63946;51.986;5.930;2023-07-08T22:05:56;25.54;53.96
75357;HTU21D;63946;51.986;5.930;2023-07-08T22:08:26;25.48;53.55
75357;HTU21D;63946;51.986;5.930;2023-07-08T22:10:59;25.49;53.39
75357;HTU21D;63946;51.986;5.930;2023-07-08T22:13:32;25.49;53.07
75357;HTU21D;63946;51.986;5.930;2023-07-08T22:16:06;25.47;53.23
75357;HTU21D;63946;51.986;5.930;2023-07-08T22:18:35;25.42;53.19
75357;HTU21D;63946;51.986;5.930;2023-07-08T22:21:52;25.40;53.27
75357;HTU21D;63946;51.986;5.930;2023-07-08T22:24:07;25.37;53.62
75357;HTU21D;63946;51.986;5.930;2023-07-08T22:26:39;25.30;53.81
75357;HTU21D;63946;51.986;5.930;2023-07-08T22:29:11;25.23;54.09
75357;HTU21D;63946;51.986;5.930;2023-07-08T22:31:41;25.21;54.37
75357;HTU21D;63946;51.986;5.930;2023-07-08T22:34:14;25.18;54.65
75357;HTU21D;63946;51.986;5.930;2023-07-08T22:36:44;25.15;54.62
75357;HTU21D;63946;51.986;5.930;2023-07-08T22:39:17;25.09;54.67
75357;HTU21D;63946;51.986;5.930;2023-07-08T22:41:49;25.05;54.93
75357;HTU21D;63946;51.986;5.930;2023-07-08T22:44:20;25.03;55.10
75357;HTU21D;63946;51.986;5.930;2023-07-08T22:46:53;24.94;55.12
75357;HTU21D;63946;51.986;5.930;2023-07-08T22:49:22;24.94;55.09
75357;HTU21D;63946;51.986;5.930;2023-07-08T22:51:57;24.92;55.33
75357;HTU21D;63946;51.986;5.930;2023-07-08T22:54:27;24.89;55.54
75357;HTU21D;63946;51.986;5.930;2023-07-08T22:56:57;24.83;55.68